Station: Bradshaw-Koolendong Valley  

  Atmospheric Gas Attenuation - ITU Rec 676-11   ----------------- dB/100km -----------------
Date Time Temp RH % AH g/m3 Dew Point Wind Direction Speed kph Gust kph Barometer mB Rainfall Since 9am 24GHz 47GHz 76GHz 122GHz 134GHz 241GHz
08/05 12:10 28 35 9.52 11.1 11 15 1016.1 0 20.8 23.5 36.6 96.2 92.7 320.3
08/05 12:00 28.2 36 9.9 11.7 11 26 1016.2 0 21.6 24.0 37.8 99.4 96.8 334.6
08/05 11:50 27.5 36 9.53 11.1 13 17 1016.3 0 20.9 23.7 36.9 96.9 93.4 322.7
08/05 11:40 27.1 35 9.06 10.7 6 9 1016.5 0 19.9 23.1 35.5 93.0 88.6 305.7
08/05 11:30 27.3 35 9.16 10.5 13 24 1016.7 0 20.1 23.2 35.7 93.7 89.5 308.9
08/05 11:20 26.9 37 9.47 11.3 7 13 1016.8 0 20.8 23.7 37.0 97.1 93.5 322.8
08/05 11:10 26.9 35 8.96 10.5 13 15 1016.9 0 19.7 23.0 35.2 92.4 87.7 302.6
08/05 11:00 26.2 36 8.86 10 11 26 1017.1 0 19.5 23.1 35.2 92.3 87.3 301.3
08/05 10:50 26.2 36 8.86 10.3 17 20 1017.2 0 19.5 23.1 35.2 92.3 87.4 301.3
08/05 10:40 25.8 38 9.15 10.4 11 15 1017.4 0 20.2 23.6 36.4 95.4 91.1 314.4
08/05 10:30 25.9 38 9.2 10.5 11 22 1017.5 0 20.3 23.6 36.5 95.8 91.6 316.1
08/05 10:20 24.9 38 8.7 9.6 13 15 1017.5 0 19.3 23.2 35.2 92.3 87.0 299.7
08/05 10:10 25.1 38 8.8 10.1 13 15 1017.6 0 19.5 23.3 35.5 93.0 87.9 303.0
08/05 10:00 25.2 39 9.08 10.3 9 20 1017.7 0 20.0 23.7 36.4 95.5 91.0 314.0
08/05 09:50 24.3 38 8.41 9.4 19 28 1017.7 0 18.7 22.9 34.5 90.3 84.3 290.3
08/05 09:40 23.8 40 8.6 9.4 17 22 1017.6 0 19.1 23.3 35.3 92.6 87.0 299.8
08/05 09:30 24 41 8.92 9.9 13 28 1017.6 0 19.8 23.7 36.4 95.4 90.5 312.1
08/05 09:20 23.6 40 8.51 9.5 15 19 1017.6 0 18.9 23.3 35.1 92.0 86.2 296.9
08/05 09:10 23.5 43 9.09 10.2 13 19 1017.5 0 20.2 24.1 37.2 97.6 93.1 321.0
08/05 09:00 23 46 9.45 10.8 9 24 1017.4 0 20.9 24.8 38.7 101.7 98.0 338.0
08/05 08:50 22.6 48 9.64 11.3 11 19 1017.4 0 21.3 25.2 39.6 104.1 100.8 347.8
08/05 08:40 21.7 54 10.3 12.2 7 11 1017.4 0 22.8 26.4 42.6 111.9 110.1 380.5
08/05 08:30 20.7 66 11.88 14.1 0 0 1017.3 0 26.2 29.3 49.4 130.2 132.3 457.8
08/05 08:20 18.7 79 12.65 15.1 0 0 1017.2 0 27.9 31.3 54.0 142.3 146.5 507.3
08/05 08:10 16.9 96 13.81 16.2 0 0 1017.2 0 30.6 34.0 60.5 159.6 167.2 579.2
08/05 08:00 15.3 96 12.54 14.7 0 0 1017.1 0 27.9 32.3 55.9 147.4 151.6 524.5
08/05 07:50 14.4 95 11.74 13.6 0 0 1017 0 26.3 31.2 52.9 139.5 141.6 489.3
08/05 07:40 13.7 94 11.13 12.7 0 0 1016.9 0 25.0 30.4 50.7 133.5 133.9 462.6
08/05 07:30 13.2 95 10.91 12.4 0 0 1016.7 0 24.6 30.1 50.0 131.7 131.6 454.4
08/05 07:20 12.9 95 10.71 12.1 0 0 1016.7 0 24.2 29.9 49.4 129.9 129.2 446.1
08/05 07:10 13 95 10.77 12.2 0 0 1016.7 0 24.3 30.0 49.6 130.4 129.9 448.5
08/05 07:00 13 95 10.77 12.2 0 2 1016.7 0 24.3 30.0 49.6 130.4 129.9 448.5
08/05 06:50 12.9 94 10.6 11.9 0 0 1016.5 0 23.9 29.7 48.9 128.6 127.6 440.5
08/05 06:40 12.9 94 10.6 11.9 0 0 1016.5 0 23.9 29.7 48.9 128.6 127.6 440.5
08/05 06:30 13 94 10.66 12.1 0 0 1016.4 0 24.0 29.8 49.1 129.1 128.3 442.9
08/05 06:20 13 94 10.66 12 0 0 1016.3 0 24.0 29.7 49.0 129.1 128.3 442.9
08/05 06:10 13.2 94 10.79 12.2 0 0 1016.3 0 24.3 29.9 49.5 130.3 129.8 448.2
08/05 06:00 13.1 93 10.61 12 0 0 1016.3 0 23.9 29.6 48.8 128.3 127.4 439.8
08/05 05:50 13.1 93 10.61 12 0 0 1016.2 0 23.9 29.6 48.8 128.3 127.4 439.7
08/05 05:40 13.3 93 10.75 12.2 0 0 1016.3 0 24.2 29.8 49.3 129.6 129.1 445.6
08/05 05:30 13.4 93 10.81 12.3 0 0 1016.2 0 24.3 29.9 49.4 130.1 129.8 448.0
08/05 05:20 13.5 93 10.88 12.4 0 0 1016.2 0 24.5 30.0 49.7 130.8 130.6 451.0
08/05 05:10 13.6 94 11.06 12.6 0 0 1016.1 0 24.9 30.2 50.4 132.7 133.0 459.4
08/05 05:00 13.7 93 11.01 12.6 0 0 1016 0 24.8 30.1 50.1 131.9 132.1 456.3
08/05 04:50 13.7 94 11.13 12.7 0 0 1015.9 0 25.0 30.3 50.6 133.3 133.8 462.3
08/05 04:40 13.7 94 11.13 12.7 0 0 1015.8 0 25.0 30.3 50.6 133.3 133.8 462.3
08/05 04:30 13.7 94 11.13 12.8 0 0 1015.9 0 25.0 30.3 50.6 133.3 133.8 462.3
08/05 04:20 13.8 94 11.2 12.8 0 0 1015.8 0 25.2 30.4 50.9 134.0 134.7 465.2
08/05 04:10 13.8 94 11.2 12.8 0 0 1016 0 25.2 30.4 50.9 134.0 134.7 465.3
08/05 04:00 13.8 93 11.08 12.7 0 0 1016.1 0 24.9 30.2 50.4 132.6 132.9 459.2
08/05 03:50 13.9 92 11.03 12.7 0 0 1016.2 0 24.8 30.1 50.1 131.9 132.1 456.2
08/05 03:40 14.1 95 11.53 13.3 0 0 1016.2 0 25.9 30.9 52.2 137.4 139.0 480.2
08/05 03:30 14.2 94 11.48 13.2 0 0 1016.3 0 25.7 30.8 51.9 136.6 138.1 477.1
08/05 03:20 14.1 94 11.41 13.1 0 0 1016.3 0 25.6 30.7 51.6 136.0 137.2 474.2
08/05 03:10 14.1 92 11.17 12.9 0 0 1016.3 0 25.1 30.3 50.6 133.2 133.7 462.0
08/05 03:00 14.2 93 11.36 13.1 0 0 1016.3 0 25.5 30.6 51.4 135.2 136.3 471.0
08/05 02:50 14.2 92 11.23 12.9 0 0 1016.4 0 25.2 30.3 50.8 133.7 134.4 464.5
08/05 02:40 14.3 92 11.3 13 0 0 1016.4 0 25.3 30.4 51.0 134.4 135.3 467.4
08/05 02:30 14.5 92 11.44 13.2 0 0 1016.5 0 25.6 30.6 51.5 135.7 136.9 473.3
08/05 02:20 14.4 92 11.37 13.1 0 0 1016.6 0 25.5 30.5 51.3 135.0 136.1 470.4
08/05 02:10 14.5 92 11.44 13.2 0 0 1016.6 0 25.6 30.6 51.5 135.7 137.0 473.3
08/05 02:00 14.5 91 11.32 13 0 0 1016.7 0 25.4 30.4 51.0 134.3 135.2 467.3
08/05 01:50 14.6 89 11.14 12.9 0 0 1016.7 0 25.0 30.1 50.1 132.0 132.5 457.7
08/05 01:40 14.7 89 11.21 12.9 0 0 1016.8 0 25.1 30.1 50.4 132.7 133.3 460.6
08/05 01:30 14.9 89 11.34 13.1 0 0 1016.9 0 25.4 30.3 50.8 133.8 134.8 466.0
08/05 01:20 15 88 11.28 13 0 0 1016.9 0 25.3 30.2 50.5 133.0 133.8 462.4
08/05 01:10 15.1 89 11.48 13.3 0 0 1017 0 25.7 30.5 51.3 135.1 136.5 471.8
08/05 01:00 15.3 90 11.75 13.7 0 0 1017.1 0 26.2 30.9 52.4 138.0 140.0 484.2
08/05 00:50 15.4 89 11.69 13.6 0 0 1017.2 0 26.1 30.8 52.1 137.1 139.0 480.6
08/05 00:40 15.4 90 11.82 13.7 0 0 1017.2 0 26.4 31.0 52.6 138.6 140.9 487.1
08/05 00:30 15.5 88 11.63 13.5 0 0 1017.3 0 26.0 30.6 51.7 136.2 138.0 477.0
08/05 00:20 15.7 89 11.91 13.9 0 0 1017.3 0 26.6 31.0 52.8 139.1 141.6 489.8
08/05 00:10 15.7 88 11.77 13.7 0 0 1017.3 0 26.3 30.8 52.2 137.5 139.6 482.7
08/05 00:00 15.9 89 12.05 14.1 0 0 1017.3 0 26.9 31.2 53.3 140.4 143.3 495.6
07/05 23:50 16 88 11.99 14.1 0 0 1017.3 0 26.7 31.1 53.0 139.5 142.2 491.9
07/05 23:40 16.1 88 12.06 14.2 0 0 1017.4 0 26.9 31.2 53.2 140.2 143.1 494.8
07/05 23:30 16.2 90 12.41 14.6 0 0 1017.5 0 27.6 31.8 54.7 144.2 148.0 511.9
07/05 23:20 16.3 88 12.21 14.4 0 0 1017.5 0 27.2 31.4 53.7 141.6 144.9 501.1
07/05 23:10 16.5 88 12.36 14.6 0 0 1017.4 0 27.5 31.6 54.3 143.0 146.6 507.4
07/05 23:00 16.5 87 12.22 14.3 0 0 1017.4 0 27.2 31.3 53.6 141.3 144.6 500.3
07/05 22:50 16.6 87 12.29 14.4 0 0 1017.3 0 27.3 31.4 53.9 142.0 145.4 503.1
07/05 22:40 16.7 83 11.79 13.8 0 0 1017.4 0 26.2 30.5 51.6 136.0 138.1 477.5
07/05 22:30 16.9 85 12.22 14.4 0 2 1017.4 0 27.2 31.2 53.4 140.6 143.8 497.7
07/05 22:20 17.1 83 12.08 14.2 0 0 1017.4 0 26.8 30.9 52.6 138.6 141.5 489.4
07/05 22:10 17.4 82 12.15 14.3 0 0 1017.3 0 27.0 30.9 52.7 138.9 141.9 491.0
07/05 22:00 17.6 79 11.85 13.9 0 0 1017.3 0 26.3 30.3 51.3 135.1 137.3 474.9
07/05 21:50 17.7 82 12.37 14.7 0 0 1017.3 0 27.4 31.1 53.5 140.9 144.5 500.0
07/05 21:40 18 81 12.44 14.8 0 0 1017.3 0 27.5 31.2 53.6 141.1 144.9 501.5
07/05 21:30 18.1 78 12.05 14.2 0 0 1017.3 0 26.7 30.4 51.8 136.5 139.2 481.6
07/05 21:20 18.5 77 12.18 14.4 0 0 1017.2 0 27.0 30.5 52.1 137.3 140.3 485.5
07/05 21:10 19.1 73 11.97 14.3 0 0 1017.1 0 26.5 30.0 50.8 133.8 136.3 471.5
07/05 21:00 19.9 63 10.82 12.7 4 6 1017 0 24.0 27.8 45.6 119.9 119.4 412.8
07/05 20:50 20.3 57 10.02 11.5 4 6 1016.9 0 22.3 26.4 42.2 110.9 108.5 374.6
07/05 20:40 20.9 56 10.2 12 4 6 1016.8 0 22.6 26.5 42.6 111.9 109.9 379.7
07/05 20:30 20.4 60 10.61 12.4 4 9 1016.7 0 23.5 27.3 44.5 116.9 115.9 400.6
07/05 20:20 20.2 61 10.66 12.4 6 6 1016.5 0 23.6 27.4 44.8 117.7 116.8 403.8
07/05 20:10 20.4 63 11.14 13.3 6 6 1016.4 0 24.6 28.1 46.6 122.5 122.8 424.7
07/05 20:00 20.2 61 10.66 12.4 4 6 1016.4 0 23.6 27.4 44.8 117.7 116.8 403.8
07/05 19:50 20.9 59 10.74 12.6 2 4 1016.2 0 23.8 27.3 44.7 117.5 116.8 403.8
07/05 19:40 21.1 55 10.13 11.7 4 6 1016.1 0 22.5 26.3 42.2 110.9 108.7 375.5

Last Refresh: 08-May-2026 12:10:14

Bureau of Meteorology